sensor_id;sensor_type;location;lat;lon;timestamp;P1;durP1;ratioP1;P2;durP2;ratioP2
2187;SDS011;1100;52.014;8.540;2023-05-07T00:00:07;19.10;;;11.50;;
2187;SDS011;1100;52.014;8.540;2023-05-07T00:02:33;18.92;;;10.38;;
2187;SDS011;1100;52.014;8.540;2023-05-07T00:04:59;20.70;;;11.47;;
2187;SDS011;1100;52.014;8.540;2023-05-07T00:07:24;21.15;;;11.48;;
2187;SDS011;1100;52.014;8.540;2023-05-07T00:09:49;20.73;;;11.43;;
2187;SDS011;1100;52.014;8.540;2023-05-07T00:12:15;19.20;;;11.00;;
2187;SDS011;1100;52.014;8.540;2023-05-07T00:14:40;19.93;;;10.80;;
2187;SDS011;1100;52.014;8.540;2023-05-07T00:17:05;20.80;;;11.23;;
2187;SDS011;1100;52.014;8.540;2023-05-07T00:19:31;20.00;;;11.10;;
2187;SDS011;1100;52.014;8.540;2023-05-07T00:21:56;21.92;;;11.63;;
2187;SDS011;1100;52.014;8.540;2023-05-07T00:24:23;19.17;;;10.90;;
2187;SDS011;1100;52.014;8.540;2023-05-07T00:26:49;20.38;;;11.57;;
2187;SDS011;1100;52.014;8.540;2023-05-07T00:29:15;19.30;;;11.55;;
2187;SDS011;1100;52.014;8.540;2023-05-07T00:31:40;19.73;;;11.50;;
2187;SDS011;1100;52.014;8.540;2023-05-07T00:34:05;21.83;;;10.97;;
2187;SDS011;1100;52.014;8.540;2023-05-07T00:36:31;19.57;;;10.77;;
2187;SDS011;1100;52.014;8.540;2023-05-07T00:38:58;19.25;;;11.15;;
2187;SDS011;1100;52.014;8.540;2023-05-07T00:41:25;22.20;;;10.90;;
2187;SDS011;1100;52.014;8.540;2023-05-07T00:43:51;19.43;;;10.93;;
2187;SDS011;1100;52.014;8.540;2023-05-07T00:46:17;19.98;;;11.85;;
2187;SDS011;1100;52.014;8.540;2023-05-07T00:48:43;19.67;;;11.43;;
2187;SDS011;1100;52.014;8.540;2023-05-07T00:51:10;18.87;;;10.87;;
2187;SDS011;1100;52.014;8.540;2023-05-07T00:53:36;20.00;;;11.02;;
2187;SDS011;1100;52.014;8.540;2023-05-07T00:56:02;19.77;;;11.17;;
2187;SDS011;1100;52.014;8.540;2023-05-07T00:58:27;21.17;;;10.85;;
2187;SDS011;1100;52.014;8.540;2023-05-07T01:00:52;20.10;;;11.20;;
2187;SDS011;1100;52.014;8.540;2023-05-07T01:03:18;22.03;;;11.50;;
2187;SDS011;1100;52.014;8.540;2023-05-07T01:05:43;22.43;;;11.10;;
2187;SDS011;1100;52.014;8.540;2023-05-07T01:08:11;19.27;;;11.63;;
2187;SDS011;1100;52.014;8.540;2023-05-07T01:10:37;21.33;;;11.15;;
2187;SDS011;1100;52.014;8.540;2023-05-07T01:13:07;20.98;;;12.45;;
2187;SDS011;1100;52.014;8.540;2023-05-07T01:15:37;21.25;;;11.73;;
2187;SDS011;1100;52.014;8.540;2023-05-07T01:18:02;20.67;;;11.33;;
2187;SDS011;1100;52.014;8.540;2023-05-07T01:20:28;18.43;;;10.40;;
2187;SDS011;1100;52.014;8.540;2023-05-07T01:22:53;21.43;;;10.87;;
2187;SDS011;1100;52.014;8.540;2023-05-07T01:25:19;21.23;;;11.23;;
2187;SDS011;1100;52.014;8.540;2023-05-07T01:27:45;22.40;;;11.60;;
2187;SDS011;1100;52.014;8.540;2023-05-07T01:30:11;23.13;;;12.00;;
2187;SDS011;1100;52.014;8.540;2023-05-07T01:35:11;22.07;;;11.27;;
2187;SDS011;1100;52.014;8.540;2023-05-07T01:37:39;19.02;;;10.52;;
2187;SDS011;1100;52.014;8.540;2023-05-07T01:40:05;23.85;;;11.70;;
2187;SDS011;1100;52.014;8.540;2023-05-07T01:42:32;22.48;;;11.82;;
2187;SDS011;1100;52.014;8.540;2023-05-07T01:44:57;19.80;;;10.77;;
2187;SDS011;1100;52.014;8.540;2023-05-07T01:47:23;23.05;;;11.65;;
2187;SDS011;1100;52.014;8.540;2023-05-07T01:49:49;19.43;;;10.93;;
2187;SDS011;1100;52.014;8.540;2023-05-07T01:52:15;22.75;;;12.07;;
2187;SDS011;1100;52.014;8.540;2023-05-07T01:54:40;20.33;;;11.67;;
2187;SDS011;1100;52.014;8.540;2023-05-07T01:57:06;19.37;;;10.97;;
2187;SDS011;1100;52.014;8.540;2023-05-07T01:59:31;20.57;;;11.93;;
2187;SDS011;1100;52.014;8.540;2023-05-07T02:01:56;22.47;;;11.20;;
2187;SDS011;1100;52.014;8.540;2023-05-07T02:04:21;20.43;;;11.27;;
2187;SDS011;1100;52.014;8.540;2023-05-07T02:06:47;20.10;;;11.07;;
2187;SDS011;1100;52.014;8.540;2023-05-07T02:09:12;22.27;;;11.20;;
2187;SDS011;1100;52.014;8.540;2023-05-07T02:11:39;25.10;;;12.43;;
2187;SDS011;1100;52.014;8.540;2023-05-07T02:14:04;21.13;;;11.17;;
2187;SDS011;1100;52.014;8.540;2023-05-07T02:16:30;21.35;;;12.32;;
2187;SDS011;1100;52.014;8.540;2023-05-07T02:18:55;20.57;;;11.80;;
2187;SDS011;1100;52.014;8.540;2023-05-07T02:21:21;19.70;;;11.53;;
2187;SDS011;1100;52.014;8.540;2023-05-07T02:27:08;25.02;;;11.75;;
2187;SDS011;1100;52.014;8.540;2023-05-07T02:29:34;20.80;;;11.03;;
2187;SDS011;1100;52.014;8.540;2023-05-07T02:31:59;23.20;;;11.47;;
2187;SDS011;1100;52.014;8.540;2023-05-07T02:34:24;25.77;;;11.80;;
2187;SDS011;1100;52.014;8.540;2023-05-07T02:36:50;21.27;;;11.93;;
2187;SDS011;1100;52.014;8.540;2023-05-07T02:39:16;21.20;;;12.10;;
2187;SDS011;1100;52.014;8.540;2023-05-07T02:41:41;22.48;;;11.73;;
2187;SDS011;1100;52.014;8.540;2023-05-07T02:44:07;23.30;;;11.37;;
2187;SDS011;1100;52.014;8.540;2023-05-07T02:46:32;21.47;;;11.63;;
2187;SDS011;1100;52.014;8.540;2023-05-07T02:48:58;22.20;;;12.50;;
2187;SDS011;1100;52.014;8.540;2023-05-07T02:51:23;22.47;;;12.03;;
2187;SDS011;1100;52.014;8.540;2023-05-07T02:53:48;21.00;;;11.10;;
2187;SDS011;1100;52.014;8.540;2023-05-07T02:56:14;22.40;;;12.37;;
2187;SDS011;1100;52.014;8.540;2023-05-07T02:58:39;20.70;;;12.05;;
2187;SDS011;1100;52.014;8.540;2023-05-07T03:01:05;24.13;;;12.57;;
2187;SDS011;1100;52.014;8.540;2023-05-07T03:03:31;21.27;;;11.52;;
2187;SDS011;1100;52.014;8.540;2023-05-07T03:05:57;23.23;;;12.57;;
2187;SDS011;1100;52.014;8.540;2023-05-07T03:08:22;23.13;;;11.90;;
2187;SDS011;1100;52.014;8.540;2023-05-07T03:10:48;21.03;;;11.80;;
2187;SDS011;1100;52.014;8.540;2023-05-07T03:13:13;23.80;;;12.63;;
2187;SDS011;1100;52.014;8.540;2023-05-07T03:15:39;24.30;;;12.20;;
2187;SDS011;1100;52.014;8.540;2023-05-07T03:18:04;24.90;;;12.13;;
2187;SDS011;1100;52.014;8.540;2023-05-07T03:20:30;22.30;;;12.17;;
2187;SDS011;1100;52.014;8.540;2023-05-07T03:22:55;20.00;;;12.30;;
2187;SDS011;1100;52.014;8.540;2023-05-07T03:25:20;21.27;;;11.93;;
2187;SDS011;1100;52.014;8.540;2023-05-07T03:27:46;23.57;;;12.70;;
2187;SDS011;1100;52.014;8.540;2023-05-07T03:30:11;25.40;;;12.40;;
2187;SDS011;1100;52.014;8.540;2023-05-07T03:32:37;23.57;;;12.10;;
2187;SDS011;1100;52.014;8.540;2023-05-07T03:35:02;23.88;;;12.05;;
2187;SDS011;1100;52.014;8.540;2023-05-07T03:37:28;26.50;;;13.07;;
2187;SDS011;1100;52.014;8.540;2023-05-07T03:39:53;23.53;;;12.07;;
2187;SDS011;1100;52.014;8.540;2023-05-07T03:42:18;22.20;;;11.70;;
2187;SDS011;1100;52.014;8.540;2023-05-07T03:44:44;25.13;;;12.50;;
2187;SDS011;1100;52.014;8.540;2023-05-07T03:47:09;22.60;;;12.07;;
2187;SDS011;1100;52.014;8.540;2023-05-07T03:49:35;22.73;;;11.87;;
2187;SDS011;1100;52.014;8.540;2023-05-07T03:52:00;21.10;;;11.13;;
2187;SDS011;1100;52.014;8.540;2023-05-07T03:54:26;23.17;;;12.43;;
2187;SDS011;1100;52.014;8.540;2023-05-07T03:56:51;23.50;;;12.57;;
2187;SDS011;1100;52.014;8.540;2023-05-07T03:59:16;22.80;;;12.13;;
2187;SDS011;1100;52.014;8.540;2023-05-07T04:01:42;21.53;;;12.13;;
2187;SDS011;1100;52.014;8.540;2023-05-07T04:04:07;22.57;;;12.70;;
2187;SDS011;1100;52.014;8.540;2023-05-07T04:06:32;23.00;;;12.57;;
2187;SDS011;1100;52.014;8.540;2023-05-07T04:08:58;22.85;;;12.35;;
2187;SDS011;1100;52.014;8.540;2023-05-07T04:11:23;24.13;;;11.87;;
2187;SDS011;1100;52.014;8.540;2023-05-07T04:13:50;23.40;;;12.32;;
2187;SDS011;1100;52.014;8.540;2023-05-07T04:16:15;23.07;;;11.80;;
2187;SDS011;1100;52.014;8.540;2023-05-07T04:18:40;23.43;;;12.23;;
2187;SDS011;1100;52.014;8.540;2023-05-07T04:21:13;22.42;;;11.88;;
2187;SDS011;1100;52.014;8.540;2023-05-07T04:23:39;22.10;;;11.57;;
2187;SDS011;1100;52.014;8.540;2023-05-07T04:26:04;25.80;;;12.77;;
2187;SDS011;1100;52.014;8.540;2023-05-07T04:28:30;25.63;;;12.63;;
2187;SDS011;1100;52.014;8.540;2023-05-07T04:30:55;21.77;;;11.70;;
2187;SDS011;1100;52.014;8.540;2023-05-07T04:33:20;25.33;;;12.57;;
2187;SDS011;1100;52.014;8.540;2023-05-07T04:35:46;23.73;;;13.30;;
2187;SDS011;1100;52.014;8.540;2023-05-07T04:38:11;24.50;;;12.33;;
2187;SDS011;1100;52.014;8.540;2023-05-07T04:40:36;22.87;;;12.80;;
2187;SDS011;1100;52.014;8.540;2023-05-07T04:43:02;23.17;;;12.93;;
2187;SDS011;1100;52.014;8.540;2023-05-07T04:45:27;24.90;;;12.20;;
2187;SDS011;1100;52.014;8.540;2023-05-07T04:47:52;23.07;;;12.57;;
2187;SDS011;1100;52.014;8.540;2023-05-07T04:50:18;25.17;;;12.70;;
2187;SDS011;1100;52.014;8.540;2023-05-07T04:52:44;25.17;;;12.73;;
2187;SDS011;1100;52.014;8.540;2023-05-07T04:55:10;23.70;;;12.67;;
2187;SDS011;1100;52.014;8.540;2023-05-07T04:57:35;25.70;;;13.50;;
2187;SDS011;1100;52.014;8.540;2023-05-07T05:00:01;24.92;;;12.70;;
2187;SDS011;1100;52.014;8.540;2023-05-07T05:02:28;25.23;;;13.10;;
2187;SDS011;1100;52.014;8.540;2023-05-07T05:04:53;23.10;;;13.13;;
2187;SDS011;1100;52.014;8.540;2023-05-07T05:07:18;23.67;;;12.43;;
2187;SDS011;1100;52.014;8.540;2023-05-07T05:09:43;23.60;;;12.83;;
2187;SDS011;1100;52.014;8.540;2023-05-07T05:12:09;26.13;;;13.50;;
2187;SDS011;1100;52.014;8.540;2023-05-07T05:14:35;23.40;;;12.33;;
2187;SDS011;1100;52.014;8.540;2023-05-07T05:17:00;22.63;;;11.87;;
2187;SDS011;1100;52.014;8.540;2023-05-07T05:19:25;25.70;;;13.30;;
2187;SDS011;1100;52.014;8.540;2023-05-07T05:21:50;24.03;;;12.67;;
2187;SDS011;1100;52.014;8.540;2023-05-07T05:24:16;23.53;;;12.23;;
2187;SDS011;1100;52.014;8.540;2023-05-07T05:26:41;23.67;;;12.65;;
2187;SDS011;1100;52.014;8.540;2023-05-07T05:29:07;25.87;;;13.40;;
2187;SDS011;1100;52.014;8.540;2023-05-07T05:31:32;21.87;;;12.33;;
2187;SDS011;1100;52.014;8.540;2023-05-07T05:33:58;22.17;;;11.10;;
2187;SDS011;1100;52.014;8.540;2023-05-07T05:36:23;24.00;;;12.20;;
2187;SDS011;1100;52.014;8.540;2023-05-07T05:38:49;22.80;;;11.67;;
2187;SDS011;1100;52.014;8.540;2023-05-07T05:41:14;21.80;;;12.18;;
2187;SDS011;1100;52.014;8.540;2023-05-07T05:43:40;24.00;;;12.13;;
2187;SDS011;1100;52.014;8.540;2023-05-07T05:46:05;20.40;;;12.23;;
2187;SDS011;1100;52.014;8.540;2023-05-07T05:48:31;21.27;;;11.57;;
2187;SDS011;1100;52.014;8.540;2023-05-07T05:50:56;23.30;;;12.60;;
2187;SDS011;1100;52.014;8.540;2023-05-07T05:53:21;21.60;;;11.50;;
2187;SDS011;1100;52.014;8.540;2023-05-07T05:55:46;22.43;;;12.43;;
2187;SDS011;1100;52.014;8.540;2023-05-07T05:58:12;23.70;;;12.80;;
2187;SDS011;1100;52.014;8.540;2023-05-07T06:00:37;23.97;;;12.07;;
2187;SDS011;1100;52.014;8.540;2023-05-07T06:03:03;24.20;;;11.77;;
2187;SDS011;1100;52.014;8.540;2023-05-07T06:05:28;22.43;;;11.10;;
2187;SDS011;1100;52.014;8.540;2023-05-07T06:07:53;20.15;;;10.98;;
2187;SDS011;1100;52.014;8.540;2023-05-07T06:10:18;23.20;;;11.53;;
2187;SDS011;1100;52.014;8.540;2023-05-07T06:12:44;20.97;;;10.93;;
2187;SDS011;1100;52.014;8.540;2023-05-07T06:15:09;23.30;;;11.23;;
2187;SDS011;1100;52.014;8.540;2023-05-07T06:17:35;19.45;;;10.68;;
2187;SDS011;1100;52.014;8.540;2023-05-07T06:20:00;21.30;;;10.87;;
2187;SDS011;1100;52.014;8.540;2023-05-07T06:22:25;20.13;;;10.40;;
2187;SDS011;1100;52.014;8.540;2023-05-07T06:24:51;20.93;;;10.30;;
2187;SDS011;1100;52.014;8.540;2023-05-07T06:27:16;19.33;;;10.50;;
2187;SDS011;1100;52.014;8.540;2023-05-07T06:29:41;19.50;;;10.23;;
2187;SDS011;1100;52.014;8.540;2023-05-07T06:32:07;17.80;;;9.93;;
2187;SDS011;1100;52.014;8.540;2023-05-07T06:34:34;18.73;;;9.65;;
2187;SDS011;1100;52.014;8.540;2023-05-07T06:36:59;20.60;;;10.70;;
2187;SDS011;1100;52.014;8.540;2023-05-07T06:39:25;21.30;;;10.35;;
2187;SDS011;1100;52.014;8.540;2023-05-07T06:41:50;21.40;;;10.00;;
2187;SDS011;1100;52.014;8.540;2023-05-07T06:44:15;19.43;;;9.87;;
2187;SDS011;1100;52.014;8.540;2023-05-07T06:46:41;19.77;;;10.37;;
2187;SDS011;1100;52.014;8.540;2023-05-07T06:49:06;19.87;;;9.57;;
2187;SDS011;1100;52.014;8.540;2023-05-07T06:51:32;19.05;;;9.20;;
2187;SDS011;1100;52.014;8.540;2023-05-07T06:53:57;19.97;;;10.17;;
2187;SDS011;1100;52.014;8.540;2023-05-07T06:56:22;18.87;;;10.23;;
2187;SDS011;1100;52.014;8.540;2023-05-07T06:58:48;18.35;;;9.40;;
2187;SDS011;1100;52.014;8.540;2023-05-07T07:01:13;17.93;;;9.87;;
2187;SDS011;1100;52.014;8.540;2023-05-07T07:03:39;20.10;;;10.20;;
2187;SDS011;1100;52.014;8.540;2023-05-07T07:06:04;18.27;;;9.57;;
2187;SDS011;1100;52.014;8.540;2023-05-07T07:08:30;19.83;;;9.43;;
2187;SDS011;1100;52.014;8.540;2023-05-07T07:10:55;16.50;;;9.60;;
2187;SDS011;1100;52.014;8.540;2023-05-07T07:13:21;17.07;;;9.30;;
2187;SDS011;1100;52.014;8.540;2023-05-07T07:15:46;16.43;;;9.10;;
2187;SDS011;1100;52.014;8.540;2023-05-07T07:18:11;17.43;;;9.43;;
2187;SDS011;1100;52.014;8.540;2023-05-07T07:20:37;17.30;;;9.53;;
2187;SDS011;1100;52.014;8.540;2023-05-07T07:23:02;16.00;;;9.20;;
2187;SDS011;1100;52.014;8.540;2023-05-07T07:25:27;16.87;;;8.87;;
2187;SDS011;1100;52.014;8.540;2023-05-07T07:27:53;17.60;;;8.53;;
2187;SDS011;1100;52.014;8.540;2023-05-07T07:30:18;17.13;;;9.57;;
2187;SDS011;1100;52.014;8.540;2023-05-07T07:32:43;17.23;;;9.07;;
2187;SDS011;1100;52.014;8.540;2023-05-07T07:35:09;15.23;;;8.70;;
2187;SDS011;1100;52.014;8.540;2023-05-07T07:37:34;17.73;;;8.85;;
2187;SDS011;1100;52.014;8.540;2023-05-07T07:40:00;17.75;;;8.70;;
2187;SDS011;1100;52.014;8.540;2023-05-07T07:42:25;15.07;;;8.07;;
2187;SDS011;1100;52.014;8.540;2023-05-07T07:44:51;15.00;;;7.90;;
2187;SDS011;1100;52.014;8.540;2023-05-07T07:47:17;15.23;;;8.13;;
2187;SDS011;1100;52.014;8.540;2023-05-07T07:49:42;15.83;;;8.07;;
2187;SDS011;1100;52.014;8.540;2023-05-07T07:52:07;15.43;;;7.63;;
2187;SDS011;1100;52.014;8.540;2023-05-07T07:54:33;15.00;;;7.17;;
2187;SDS011;1100;52.014;8.540;2023-05-07T07:56:58;13.73;;;7.10;;
2187;SDS011;1100;52.014;8.540;2023-05-07T07:59:23;13.20;;;7.23;;
2187;SDS011;1100;52.014;8.540;2023-05-07T08:01:48;13.43;;;6.73;;
2187;SDS011;1100;52.014;8.540;2023-05-07T08:04:15;15.13;;;7.55;;
2187;SDS011;1100;52.014;8.540;2023-05-07T08:06:40;12.90;;;7.40;;
2187;SDS011;1100;52.014;8.540;2023-05-07T08:09:06;14.07;;;7.20;;
2187;SDS011;1100;52.014;8.540;2023-05-07T08:11:31;13.10;;;7.03;;
2187;SDS011;1100;52.014;8.540;2023-05-07T08:13:56;12.13;;;6.93;;
2187;SDS011;1100;52.014;8.540;2023-05-07T08:16:22;13.00;;;6.20;;
2187;SDS011;1100;52.014;8.540;2023-05-07T08:18:47;13.37;;;6.70;;
2187;SDS011;1100;52.014;8.540;2023-05-07T08:21:12;13.43;;;6.90;;
2187;SDS011;1100;52.014;8.540;2023-05-07T08:23:38;12.30;;;7.10;;
2187;SDS011;1100;52.014;8.540;2023-05-07T08:26:03;12.53;;;6.20;;
2187;SDS011;1100;52.014;8.540;2023-05-07T08:28:28;10.90;;;5.80;;
2187;SDS011;1100;52.014;8.540;2023-05-07T08:30:54;10.57;;;5.60;;
2187;SDS011;1100;52.014;8.540;2023-05-07T08:33:21;11.77;;;6.03;;
2187;SDS011;1100;52.014;8.540;2023-05-07T08:35:46;11.40;;;6.10;;
2187;SDS011;1100;52.014;8.540;2023-05-07T08:38:12;10.73;;;5.87;;
2187;SDS011;1100;52.014;8.540;2023-05-07T08:40:37;12.60;;;6.77;;
2187;SDS011;1100;52.014;8.540;2023-05-07T08:43:05;10.95;;;5.53;;
2187;SDS011;1100;52.014;8.540;2023-05-07T08:45:31;10.77;;;6.10;;
2187;SDS011;1100;52.014;8.540;2023-05-07T08:47:58;10.07;;;5.30;;
2187;SDS011;1100;52.014;8.540;2023-05-07T08:50:26;11.35;;;5.78;;
2187;SDS011;1100;52.014;8.540;2023-05-07T08:52:52;10.53;;;5.60;;
2187;SDS011;1100;52.014;8.540;2023-05-07T08:55:17;11.80;;;6.23;;
2187;SDS011;1100;52.014;8.540;2023-05-07T08:57:43;11.70;;;6.03;;
2187;SDS011;1100;52.014;8.540;2023-05-07T09:00:09;10.77;;;5.83;;
2187;SDS011;1100;52.014;8.540;2023-05-07T09:02:35;11.68;;;5.80;;
2187;SDS011;1100;52.014;8.540;2023-05-07T09:05:01;11.40;;;6.10;;
2187;SDS011;1100;52.014;8.540;2023-05-07T09:07:27;10.50;;;5.60;;
2187;SDS011;1100;52.014;8.540;2023-05-07T09:09:53;12.10;;;6.27;;
2187;SDS011;1100;52.014;8.540;2023-05-07T09:12:20;10.98;;;5.88;;
2187;SDS011;1100;52.014;8.540;2023-05-07T09:14:46;11.57;;;6.13;;
2187;SDS011;1100;52.014;8.540;2023-05-07T09:17:12;10.52;;;5.53;;
2187;SDS011;1100;52.014;8.540;2023-05-07T09:19:38;10.10;;;4.95;;
2187;SDS011;1100;52.014;8.540;2023-05-07T09:22:04;12.87;;;5.70;;
2187;SDS011;1100;52.014;8.540;2023-05-07T09:24:32;9.57;;;5.50;;
2187;SDS011;1100;52.014;8.540;2023-05-07T09:27:03;9.83;;;5.33;;
2187;SDS011;1100;52.014;8.540;2023-05-07T09:29:29;10.13;;;5.80;;
2187;SDS011;1100;52.014;8.540;2023-05-07T09:32:00;11.48;;;5.65;;
2187;SDS011;1100;52.014;8.540;2023-05-07T09:34:29;11.18;;;6.07;;
2187;SDS011;1100;52.014;8.540;2023-05-07T09:36:55;11.38;;;6.07;;
2187;SDS011;1100;52.014;8.540;2023-05-07T09:39:21;10.83;;;5.50;;
2187;SDS011;1100;52.014;8.540;2023-05-07T09:41:48;9.80;;;5.63;;
2187;SDS011;1100;52.014;8.540;2023-05-07T09:44:14;10.80;;;5.28;;
2187;SDS011;1100;52.014;8.540;2023-05-07T09:46:41;10.53;;;5.53;;
2187;SDS011;1100;52.014;8.540;2023-05-07T09:49:09;10.65;;;5.80;;
2187;SDS011;1100;52.014;8.540;2023-05-07T09:51:45;10.48;;;5.93;;
2187;SDS011;1100;52.014;8.540;2023-05-07T09:54:14;11.05;;;5.47;;
2187;SDS011;1100;52.014;8.540;2023-05-07T09:56:40;11.83;;;6.23;;
2187;SDS011;1100;52.014;8.540;2023-05-07T09:59:08;9.20;;;5.03;;
2187;SDS011;1100;52.014;8.540;2023-05-07T10:01:37;11.52;;;5.68;;
2187;SDS011;1100;52.014;8.540;2023-05-07T10:04:05;11.30;;;5.80;;
2187;SDS011;1100;52.014;8.540;2023-05-07T10:06:33;11.37;;;5.03;;
2187;SDS011;1100;52.014;8.540;2023-05-07T10:09:00;9.88;;;5.20;;
2187;SDS011;1100;52.014;8.540;2023-05-07T10:11:25;9.33;;;5.07;;
2187;SDS011;1100;52.014;8.540;2023-05-07T10:13:51;10.23;;;5.43;;
2187;SDS011;1100;52.014;8.540;2023-05-07T10:16:17;10.57;;;5.30;;
2187;SDS011;1100;52.014;8.540;2023-05-07T10:18:43;10.97;;;5.37;;
2187;SDS011;1100;52.014;8.540;2023-05-07T10:21:14;9.57;;;4.93;;
2187;SDS011;1100;52.014;8.540;2023-05-07T10:23:43;11.45;;;4.93;;
2187;SDS011;1100;52.014;8.540;2023-05-07T10:26:10;9.30;;;5.10;;
2187;SDS011;1100;52.014;8.540;2023-05-07T10:28:38;10.82;;;5.53;;
2187;SDS011;1100;52.014;8.540;2023-05-07T10:31:13;9.85;;;5.32;;
2187;SDS011;1100;52.014;8.540;2023-05-07T10:33:48;10.73;;;5.25;;
2187;SDS011;1100;52.014;8.540;2023-05-07T10:36:16;9.02;;;4.93;;
2187;SDS011;1100;52.014;8.540;2023-05-07T10:38:42;9.07;;;4.60;;
2187;SDS011;1100;52.014;8.540;2023-05-07T10:41:08;9.75;;;4.95;;
2187;SDS011;1100;52.014;8.540;2023-05-07T10:43:38;9.30;;;4.80;;
2187;SDS011;1100;52.014;8.540;2023-05-07T10:51:36;9.57;;;5.25;;
2187;SDS011;1100;52.014;8.540;2023-05-07T11:02:02;9.43;;;4.97;;
2187;SDS011;1100;52.014;8.540;2023-05-07T11:04:28;9.13;;;4.60;;
2187;SDS011;1100;52.014;8.540;2023-05-07T11:15:02;8.15;;;4.00;;
2187;SDS011;1100;52.014;8.540;2023-05-07T11:17:29;7.68;;;3.90;;
2187;SDS011;1100;52.014;8.540;2023-05-07T11:19:56;8.73;;;4.30;;
2187;SDS011;1100;52.014;8.540;2023-05-07T11:24:59;7.85;;;4.20;;
2187;SDS011;1100;52.014;8.540;2023-05-07T11:27:26;9.68;;;4.32;;
2187;SDS011;1100;52.014;8.540;2023-05-07T11:29:51;7.43;;;3.70;;
2187;SDS011;1100;52.014;8.540;2023-05-07T11:32:24;6.90;;;3.60;;
2187;SDS011;1100;52.014;8.540;2023-05-07T11:34:53;7.43;;;3.85;;
2187;SDS011;1100;52.014;8.540;2023-05-07T11:37:20;7.72;;;3.47;;
2187;SDS011;1100;52.014;8.540;2023-05-07T11:39:46;6.38;;;3.45;;
2187;SDS011;1100;52.014;8.540;2023-05-07T11:42:28;6.80;;;3.30;;
2187;SDS011;1100;52.014;8.540;2023-05-07T11:44:57;6.32;;;3.38;;
2187;SDS011;1100;52.014;8.540;2023-05-07T11:47:23;7.38;;;3.20;;
2187;SDS011;1100;52.014;8.540;2023-05-07T11:49:49;7.70;;;3.70;;
2187;SDS011;1100;52.014;8.540;2023-05-07T11:52:16;10.32;;;3.88;;
2187;SDS011;1100;52.014;8.540;2023-05-07T11:54:48;6.10;;;2.90;;
2187;SDS011;1100;52.014;8.540;2023-05-07T11:57:17;6.03;;;2.80;;
2187;SDS011;1100;52.014;8.540;2023-05-07T11:59:43;6.83;;;3.50;;
2187;SDS011;1100;52.014;8.540;2023-05-07T12:02:14;7.57;;;3.10;;
2187;SDS011;1100;52.014;8.540;2023-05-07T12:04:40;6.23;;;2.90;;
2187;SDS011;1100;52.014;8.540;2023-05-07T12:07:10;6.43;;;3.10;;
2187;SDS011;1100;52.014;8.540;2023-05-07T12:09:42;6.03;;;2.55;;
2187;SDS011;1100;52.014;8.540;2023-05-07T12:12:09;6.63;;;2.70;;
2187;SDS011;1100;52.014;8.540;2023-05-07T12:14:41;6.97;;;2.47;;
2187;SDS011;1100;52.014;8.540;2023-05-07T12:17:08;5.78;;;2.40;;
2187;SDS011;1100;52.014;8.540;2023-05-07T12:19:34;6.68;;;3.03;;
2187;SDS011;1100;52.014;8.540;2023-05-07T12:22:01;5.47;;;2.57;;
2187;SDS011;1100;52.014;8.540;2023-05-07T12:24:28;7.00;;;3.03;;
2187;SDS011;1100;52.014;8.540;2023-05-07T12:26:54;6.00;;;2.88;;
2187;SDS011;1100;52.014;8.540;2023-05-07T12:29:22;6.17;;;2.93;;
2187;SDS011;1100;52.014;8.540;2023-05-07T12:31:49;6.32;;;3.03;;
2187;SDS011;1100;52.014;8.540;2023-05-07T12:34:15;5.85;;;3.40;;
2187;SDS011;1100;52.014;8.540;2023-05-07T12:36:40;6.60;;;3.33;;
2187;SDS011;1100;52.014;8.540;2023-05-07T12:39:06;7.10;;;3.50;;
2187;SDS011;1100;52.014;8.540;2023-05-07T12:41:36;7.43;;;3.78;;
2187;SDS011;1100;52.014;8.540;2023-05-07T12:44:18;6.25;;;3.42;;
2187;SDS011;1100;52.014;8.540;2023-05-07T12:46:43;7.07;;;3.37;;
2187;SDS011;1100;52.014;8.540;2023-05-07T12:49:08;6.07;;;3.40;;
2187;SDS011;1100;52.014;8.540;2023-05-07T12:51:34;6.00;;;3.00;;
2187;SDS011;1100;52.014;8.540;2023-05-07T12:54:00;6.63;;;3.13;;
2187;SDS011;1100;52.014;8.540;2023-05-07T12:56:25;5.90;;;2.78;;
2187;SDS011;1100;52.014;8.540;2023-05-07T12:58:51;5.87;;;3.00;;
2187;SDS011;1100;52.014;8.540;2023-05-07T13:01:16;6.07;;;3.00;;
2187;SDS011;1100;52.014;8.540;2023-05-07T13:03:47;6.45;;;3.42;;
2187;SDS011;1100;52.014;8.540;2023-05-07T13:06:15;7.53;;;3.20;;
2187;SDS011;1100;52.014;8.540;2023-05-07T13:08:41;7.18;;;3.20;;
2187;SDS011;1100;52.014;8.540;2023-05-07T13:11:09;7.10;;;3.63;;
2187;SDS011;1100;52.014;8.540;2023-05-07T13:13:38;7.05;;;2.97;;
2187;SDS011;1100;52.014;8.540;2023-05-07T13:16:05;6.45;;;3.20;;
2187;SDS011;1100;52.014;8.540;2023-05-07T13:18:32;6.75;;;2.85;;
2187;SDS011;1100;52.014;8.540;2023-05-07T13:20:58;6.45;;;3.67;;
2187;SDS011;1100;52.014;8.540;2023-05-07T13:23:25;5.90;;;2.90;;
2187;SDS011;1100;52.014;8.540;2023-05-07T13:25:51;6.25;;;3.30;;
2187;SDS011;1100;52.014;8.540;2023-05-07T13:28:18;6.55;;;3.25;;
2187;SDS011;1100;52.014;8.540;2023-05-07T13:30:45;6.43;;;3.05;;
2187;SDS011;1100;52.014;8.540;2023-05-07T13:33:11;6.07;;;3.10;;
2187;SDS011;1100;52.014;8.540;2023-05-07T13:35:36;5.93;;;3.20;;
2187;SDS011;1100;52.014;8.540;2023-05-07T13:38:02;6.77;;;3.37;;
2187;SDS011;1100;52.014;8.540;2023-05-07T13:40:27;6.15;;;3.45;;
2187;SDS011;1100;52.014;8.540;2023-05-07T13:42:53;6.13;;;3.33;;
2187;SDS011;1100;52.014;8.540;2023-05-07T13:45:18;7.10;;;3.27;;
2187;SDS011;1100;52.014;8.540;2023-05-07T13:47:44;8.02;;;2.90;;
2187;SDS011;1100;52.014;8.540;2023-05-07T13:50:10;6.60;;;3.40;;
2187;SDS011;1100;52.014;8.540;2023-05-07T13:52:38;7.80;;;3.50;;
2187;SDS011;1100;52.014;8.540;2023-05-07T13:55:06;7.05;;;3.90;;
2187;SDS011;1100;52.014;8.540;2023-05-07T13:57:32;7.20;;;3.80;;
2187;SDS011;1100;52.014;8.540;2023-05-07T13:59:57;6.53;;;3.40;;
2187;SDS011;1100;52.014;8.540;2023-05-07T14:02:22;6.83;;;3.80;;
2187;SDS011;1100;52.014;8.540;2023-05-07T14:04:47;8.53;;;3.70;;
2187;SDS011;1100;52.014;8.540;2023-05-07T14:07:13;8.23;;;3.30;;
2187;SDS011;1100;52.014;8.540;2023-05-07T14:09:38;6.77;;;3.40;;
2187;SDS011;1100;52.014;8.540;2023-05-07T14:12:03;9.93;;;5.27;;
2187;SDS011;1100;52.014;8.540;2023-05-07T14:14:29;7.72;;;3.78;;
2187;SDS011;1100;52.014;8.540;2023-05-07T14:16:54;7.83;;;4.60;;
2187;SDS011;1100;52.014;8.540;2023-05-07T14:19:20;7.27;;;3.80;;
2187;SDS011;1100;52.014;8.540;2023-05-07T14:21:47;7.50;;;4.00;;
2187;SDS011;1100;52.014;8.540;2023-05-07T14:24:13;8.40;;;3.73;;
2187;SDS011;1100;52.014;8.540;2023-05-07T14:26:38;7.20;;;3.73;;
2187;SDS011;1100;52.014;8.540;2023-05-07T14:29:03;7.97;;;4.00;;
2187;SDS011;1100;52.014;8.540;2023-05-07T14:31:28;7.70;;;4.27;;
2187;SDS011;1100;52.014;8.540;2023-05-07T14:33:54;7.05;;;4.00;;
2187;SDS011;1100;52.014;8.540;2023-05-07T14:36:19;7.83;;;4.30;;
2187;SDS011;1100;52.014;8.540;2023-05-07T14:38:46;10.52;;;5.40;;
2187;SDS011;1100;52.014;8.540;2023-05-07T14:41:11;8.50;;;4.50;;
2187;SDS011;1100;52.014;8.540;2023-05-07T14:43:37;10.23;;;4.83;;
2187;SDS011;1100;52.014;8.540;2023-05-07T14:46:05;8.95;;;4.97;;
2187;SDS011;1100;52.014;8.540;2023-05-07T14:48:30;8.67;;;5.40;;
2187;SDS011;1100;52.014;8.540;2023-05-07T14:50:55;7.70;;;4.63;;
2187;SDS011;1100;52.014;8.540;2023-05-07T14:53:21;7.82;;;4.35;;
2187;SDS011;1100;52.014;8.540;2023-05-07T14:55:47;8.73;;;4.23;;
2187;SDS011;1100;52.014;8.540;2023-05-07T14:58:12;7.43;;;4.20;;
2187;SDS011;1100;52.014;8.540;2023-05-07T15:00:38;8.53;;;4.60;;
2187;SDS011;1100;52.014;8.540;2023-05-07T15:03:07;8.60;;;5.13;;
2187;SDS011;1100;52.014;8.540;2023-05-07T15:05:35;8.77;;;4.90;;
2187;SDS011;1100;52.014;8.540;2023-05-07T15:08:00;9.35;;;4.82;;
2187;SDS011;1100;52.014;8.540;2023-05-07T15:10:26;8.70;;;4.73;;
2187;SDS011;1100;52.014;8.540;2023-05-07T15:12:51;7.30;;;4.43;;
2187;SDS011;1100;52.014;8.540;2023-05-07T15:15:16;8.20;;;4.30;;
2187;SDS011;1100;52.014;8.540;2023-05-07T15:17:42;7.90;;;4.73;;
2187;SDS011;1100;52.014;8.540;2023-05-07T15:20:07;8.68;;;4.30;;
2187;SDS011;1100;52.014;8.540;2023-05-07T15:22:33;9.20;;;5.20;;